Time;durP1;ratioP1;P1;durP2;ratioP2;P2;SDS_P1;SDS_P2;PMS_P1;PMS_P2;Temp;Humidity;BMP_temperature;BMP_pressure;BME280_temperature;BME280_humidity;BME280_pressure;Samples;Min_cycle;Max_cycle;Signal;HPM_P1;HPM_P2
2022/05/09 00:01:51;;;;;;;13.82;7.53;;;17.10;99.90;;;;;;5094974;28;20445;-59
2022/05/09 00:04:17;;;;;;;9.15;6.60;;;17.10;99.90;;;;;;5095045;28;20024;-59
2022/05/09 00:06:43;;;;;;;9.65;6.93;;;17.00;99.90;;;;;;5094941;28;20028;-59
2022/05/09 00:09:09;;;;;;;12.52;8.27;;;17.00;99.90;;;;;;5094837;28;20031;-58
2022/05/09 00:11:34;;;;;;;10.05;6.78;;;17.00;99.90;;;;;;5076809;28;20032;-59
2022/05/09 00:14:01;;;;;;;9.13;5.75;;;17.00;99.90;;;;;;5094838;28;20099;-59
2022/05/09 00:16:33;;;;;;;13.07;8.18;;;17.00;99.90;;;;;;5094713;28;20062;-59
2022/05/09 00:19:04;;;;;;;11.60;7.93;;;17.00;99.90;;;;;;5094818;28;20032;-59
2022/05/09 00:21:50;;;;;;;9.75;6.72;;;16.90;99.90;;;;;;5094800;28;20111;-58
2022/05/09 00:24:17;;;;;;;9.00;6.03;;;16.90;99.90;;;;;;5093980;28;20032;-58
2022/05/09 00:26:44;;;;;;;11.70;7.25;;;16.90;99.90;;;;;;5094797;28;20020;-59
2022/05/09 00:29:11;;;;;;;13.02;8.50;;;16.90;99.90;;;;;;5094555;28;20401;-59
2022/05/09 00:31:38;;;;;;;15.20;10.25;;;16.80;99.90;;;;;;5094543;28;20045;-59
2022/05/09 00:34:05;;;;;;;18.25;11.45;;;16.70;99.90;;;;;;5094864;28;20107;-59
2022/05/09 00:36:31;;;;;;;19.90;11.30;;;16.50;99.90;;;;;;5094152;28;20027;-58
2022/05/09 00:38:59;;;;;;;19.27;11.98;;;16.30;99.90;;;;;;5094564;28;20016;-58
2022/05/09 00:41:37;;;;;;;15.23;10.07;;;16.20;99.90;;;;;;5094443;28;20027;-58
2022/05/09 00:44:11;;;;;;;15.48;9.95;;;16.10;99.90;;;;;;5094354;28;20040;-58
2022/05/09 00:46:39;;;;;;;11.60;8.60;;;16.10;99.90;;;;;;5094510;28;20379;-58
2022/05/09 00:49:14;;;;;;;11.82;7.22;;;16.10;99.90;;;;;;5094428;28;20424;-58
2022/05/09 00:51:43;;;;;;;17.85;10.65;;;16.00;99.90;;;;;;5094261;28;20154;-58
2022/05/09 00:54:09;;;;;;;19.70;11.77;;;16.00;99.90;;;;;;5094197;28;20386;-58
2022/05/09 00:56:46;;;;;;;18.10;11.82;;;15.90;99.90;;;;;;5093964;28;20040;-58
2022/05/09 00:59:16;;;;;;;15.25;9.88;;;15.80;99.90;;;;;;5094142;28;20099;-58
2022/05/09 01:01:45;;;;;;;13.73;10.15;;;15.70;99.90;;;;;;5093799;28;20492;-58
2022/05/09 01:04:15;;;;;;;13.32;8.70;;;15.60;99.90;;;;;;5093915;28;20073;-58
2022/05/09 01:06:41;;;;;;;13.25;9.68;;;15.70;99.90;;;;;;5093718;28;20028;-59
2022/05/09 01:09:10;;;;;;;11.68;8.60;;;15.80;99.90;;;;;;5093816;28;20129;-59
2022/05/09 01:11:38;;;;;;;11.07;7.75;;;15.90;99.90;;;;;;5093850;28;20027;-58
2022/05/09 01:14:39;;;;;;;11.63;8.27;;;16.00;99.90;;;;;;5093837;28;20047;-58
2022/05/09 01:17:05;;;;;;;9.68;7.13;;;16.20;99.90;;;;;;5050884;28;20032;-58
2022/05/09 01:19:40;;;;;;;10.90;7.65;;;16.30;99.90;;;;;;5093478;28;20099;-58
2022/05/09 01:22:24;;;;;;;11.73;8.02;;;16.30;99.90;;;;;;5093938;28;20020;-58
2022/05/09 01:24:52;;;;;;;11.32;7.20;;;16.30;99.90;;;;;;5093777;28;20035;-59
2022/05/09 01:27:18;;;;;;;9.98;6.97;;;16.20;99.90;;;;;;5093558;28;20633;-58
2022/05/09 01:30:05;;;;;;;8.30;5.78;;;16.20;99.90;;;;;;5093663;28;20022;-59
2022/05/09 01:32:53;;;;;;;11.82;8.07;;;16.20;99.90;;;;;;5093652;28;20486;-58
2022/05/09 01:35:24;;;;;;;7.95;6.18;;;16.30;99.90;;;;;;5093166;28;20032;-58
2022/05/09 01:38:13;;;;;;;12.35;8.77;;;16.20;99.90;;;;;;5093754;28;20099;-58
2022/05/09 01:40:39;;;;;;;8.50;6.60;;;16.30;99.90;;;;;;5093352;28;20104;-58
2022/05/09 01:43:05;;;;;;;8.80;6.63;;;16.30;99.90;;;;;;5093552;28;20115;-59
2022/05/09 01:45:31;;;;;;;15.93;10.00;;;16.40;99.90;;;;;;5093388;28;20024;-59
2022/05/09 01:50:41;;;;;;;14.40;10.30;;;16.30;99.90;;;;;;5093702;28;20398;-59
2022/05/09 01:53:06;;;;;;;17.08;10.48;;;16.10;99.90;;;;;;5093390;28;20028;-59
2022/05/09 01:55:32;;;;;;;14.23;10.43;;;16.00;99.90;;;;;;5092975;28;20044;-58
2022/05/09 01:57:58;;;;;;;14.00;10.15;;;16.10;99.90;;;;;;5093266;28;20024;-59
2022/05/09 02:00:24;;;;;;;14.15;10.30;;;16.00;99.90;;;;;;5093196;28;20162;-58
2022/05/09 02:02:50;;;;;;;14.05;10.00;;;16.00;99.90;;;;;;5092814;28;20020;-59
2022/05/09 02:05:16;;;;;;;16.38;10.90;;;16.10;99.90;;;;;;5093142;28;20024;-59
2022/05/09 02:07:42;;;;;;;17.23;11.00;;;16.10;99.90;;;;;;5093440;28;20096;-59
2022/05/09 02:10:08;;;;;;;17.98;11.23;;;16.00;99.90;;;;;;5093120;28;20043;-58
2022/05/09 02:12:34;;;;;;;17.30;11.38;;;16.00;99.90;;;;;;5093241;28;20081;-59
2022/05/09 02:15:00;;;;;;;17.42;12.50;;;15.80;99.90;;;;;;5093206;28;20431;-59
2022/05/09 02:17:25;;;;;;;18.25;10.82;;;15.70;99.90;;;;;;5092842;28;20024;-59
2022/05/09 02:19:51;;;;;;;17.20;11.05;;;15.60;99.90;;;;;;5093233;28;20016;-59
2022/05/09 02:22:18;;;;;;;16.27;9.68;;;15.60;99.90;;;;;;5093159;28;20070;-59
2022/05/09 02:24:45;;;;;;;14.18;9.60;;;15.60;99.90;;;;;;5093171;28;20075;-59
2022/05/09 02:27:10;;;;;;;14.20;9.13;;;15.60;99.90;;;;;;5092968;28;20077;-58
2022/05/09 02:29:42;;;;;;;16.35;10.75;;;15.60;99.90;;;;;;5093121;28;20024;-58
2022/05/09 02:32:09;;;;;;;11.65;9.05;;;15.60;99.90;;;;;;5092658;28;20462;-59
2022/05/09 02:34:35;;;;;;;13.60;8.80;;;15.60;99.90;;;;;;5092948;28;20081;-58
2022/05/09 02:37:02;;;;;;;16.17;10.25;;;15.70;99.90;;;;;;5092977;28;20386;-59
2022/05/09 02:39:27;;;;;;;15.60;9.70;;;15.70;99.90;;;;;;5092799;28;20412;-58
2022/05/09 02:41:53;;;;;;;12.00;9.20;;;15.60;99.90;;;;;;5092824;28;20084;-58
2022/05/09 02:44:19;;;;;;;10.75;8.38;;;15.60;99.90;;;;;;5092879;28;20081;-58
2022/05/09 02:46:45;;;;;;;13.90;8.65;;;15.50;99.90;;;;;;5093295;28;20028;-59
2022/05/09 02:49:11;;;;;;;11.73;8.02;;;15.50;99.90;;;;;;5096436;28;20535;-59
2022/05/09 02:51:37;;;;;;;13.07;8.32;;;15.60;99.90;;;;;;5096782;28;20020;-58
2022/05/09 02:54:03;;;;;;;10.15;6.75;;;15.50;99.90;;;;;;5096581;28;20386;-59
2022/05/09 02:56:29;;;;;;;10.80;8.27;;;15.50;99.90;;;;;;5096229;28;20051;-59
2022/05/09 02:58:55;;;;;;;11.82;8.60;;;15.50;99.90;;;;;;5096370;28;20063;-59
2022/05/09 03:01:21;;;;;;;17.17;9.90;;;15.50;99.90;;;;;;5096694;28;20020;-59
2022/05/09 03:06:31;;;;;;;9.00;7.32;;;15.30;99.90;;;;;;5096283;28;20029;-59
2022/05/09 03:08:57;;;;;;;17.73;8.00;;;15.20;99.90;;;;;;5096090;28;20439;-59
2022/05/09 03:11:23;;;;;;;11.18;7.25;;;15.30;99.90;;;;;;5096053;28;20089;-58
2022/05/09 03:13:49;;;;;;;11.70;7.00;;;15.30;99.90;;;;;;5096172;28;20162;-59
2022/05/09 03:16:14;;;;;;;14.55;7.70;;;15.30;99.90;;;;;;5095797;28;20027;-59
2022/05/09 03:18:40;;;;;;;11.05;7.90;;;15.20;99.90;;;;;;5095831;28;20020;-59
2022/05/09 03:21:06;;;;;;;9.57;6.65;;;15.20;99.90;;;;;;5095961;28;20020;-59
2022/05/09 03:23:32;;;;;;;9.38;6.60;;;15.20;99.90;;;;;;5095841;28;20081;-59
2022/05/09 03:25:57;;;;;;;6.45;5.40;;;15.20;99.90;;;;;;5095757;28;20024;-59
2022/05/09 03:28:24;;;;;;;7.63;6.55;;;15.30;99.90;;;;;;5095849;28;20030;-59
2022/05/09 03:30:52;;;;;;;7.63;5.30;;;15.30;99.90;;;;;;5095543;28;20040;-58
2022/05/09 03:33:20;;;;;;;7.28;5.55;;;15.30;99.90;;;;;;5095652;28;20038;-59
2022/05/09 03:35:46;;;;;;;11.00;6.47;;;15.30;99.90;;;;;;5095618;28;20484;-59
2022/05/09 03:38:13;;;;;;;11.82;5.47;;;15.40;99.90;;;;;;5095555;28;20016;-59
2022/05/09 03:40:39;;;;;;;7.93;5.90;;;15.40;99.90;;;;;;5095769;28;20043;-59
2022/05/09 03:43:06;;;;;;;8.27;4.75;;;15.40;99.90;;;;;;5095370;28;20115;-59
2022/05/09 03:45:32;;;;;;;6.80;5.05;;;15.40;99.90;;;;;;5095418;28;20020;-59
2022/05/09 03:47:59;;;;;;;6.07;4.63;;;15.40;99.90;;;;;;5095598;28;20028;-59
2022/05/09 03:50:27;;;;;;;5.25;4.18;;;15.40;99.90;;;;;;5095400;28;20513;-59
2022/05/09 03:52:53;;;;;;;5.43;4.18;;;15.40;99.90;;;;;;5095481;28;20043;-59
2022/05/09 03:55:18;;;;;;;8.68;5.07;;;15.50;99.90;;;;;;5095290;28;20386;-59
2022/05/09 03:57:46;;;;;;;7.10;4.32;;;15.50;99.90;;;;;;5094880;28;20020;-59
2022/05/09 04:00:14;;;;;;;6.38;4.20;;;15.50;99.90;;;;;;5094477;28;20047;-59
2022/05/09 04:02:41;;;;;;;7.68;5.18;;;15.50;99.90;;;;;;5095192;28;20031;-59
2022/05/09 04:05:11;;;;;;;8.25;6.93;;;15.50;99.90;;;;;;5094999;28;20043;-59
2022/05/09 04:07:37;;;;;;;12.90;8.68;;;15.40;99.90;;;;;;5095024;28;20458;-58
2022/05/09 04:10:03;;;;;;;11.55;7.57;;;15.20;99.90;;;;;;5095122;28;20031;-58
2022/05/09 04:12:28;;;;;;;11.65;7.97;;;15.00;99.90;;;;;;5095088;28;20527;-58
2022/05/09 04:17:38;;;;;;;7.55;5.88;;;14.90;99.90;;;;;;5095023;28;20034;-58
2022/05/09 04:20:04;;;;;;;8.20;6.40;;;15.00;99.90;;;;;;5094709;28;20028;-58
2022/05/09 04:22:31;;;;;;;7.00;5.32;;;15.20;99.90;;;;;;5094867;28;20048;-59
2022/05/09 04:24:57;;;;;;;8.27;5.70;;;15.30;99.90;;;;;;5094499;28;20059;-59
2022/05/09 04:27:23;;;;;;;9.88;6.18;;;15.40;99.90;;;;;;5094922;28;20432;-59
2022/05/09 04:29:49;;;;;;;6.45;5.40;;;15.40;99.90;;;;;;5094659;28;20028;-59
2022/05/09 04:32:15;;;;;;;8.32;5.93;;;15.40;99.90;;;;;;5094500;28;20070;-59
2022/05/09 04:34:40;;;;;;;6.55;5.05;;;15.50;99.90;;;;;;5094596;28;20024;-59
2022/05/09 04:37:06;;;;;;;6.22;4.97;;;15.60;99.90;;;;;;5094353;28;20024;-58
2022/05/09 04:39:32;;;;;;;5.75;5.10;;;15.60;99.90;;;;;;5094372;28;20027;-59
2022/05/09 04:41:57;;;;;;;5.97;4.65;;;15.70;99.90;;;;;;5094345;28;20474;-58
2022/05/09 04:44:23;;;;;;;5.32;3.80;;;15.80;99.90;;;;;;5094153;28;20028;-58
2022/05/09 04:46:49;;;;;;;4.78;3.95;;;15.80;99.90;;;;;;5094006;28;20458;-58
2022/05/09 04:49:15;;;;;;;5.05;4.22;;;15.90;99.90;;;;;;5093996;28;20105;-59
2022/05/09 04:51:40;;;;;;;8.73;5.50;;;16.00;99.90;;;;;;5094076;28;20028;-59
2022/05/09 04:54:06;;;;;;;4.75;3.85;;;16.00;99.90;;;;;;5093948;28;20027;-59
2022/05/09 04:56:32;;;;;;;4.03;3.58;;;16.00;99.90;;;;;;5093360;28;20083;-58
2022/05/09 04:58:57;;;;;;;4.47;3.90;;;16.00;99.90;;;;;;5092641;28;20039;-60
2022/05/09 05:01:23;;;;;;;4.22;3.80;;;16.10;99.90;;;;;;5087032;28;20024;-60
2022/05/09 05:03:49;;;;;;;4.10;3.70;;;16.20;99.90;;;;;;5086568;28;20081;-60
2022/05/09 05:06:14;;;;;;;7.85;5.88;;;16.20;99.90;;;;;;5093382;28;20384;-60
2022/05/09 05:08:40;;;;;;;5.88;5.28;;;16.20;99.90;;;;;;5092301;28;20659;-60
2022/05/09 05:11:06;;;;;;;6.88;5.97;;;16.20;99.90;;;;;;5092597;28;20025;-60
2022/05/09 05:13:33;;;;;;;5.75;4.78;;;16.20;99.90;;;;;;5091992;28;20028;-60
2022/05/09 05:15:59;;;;;;;6.90;4.80;;;16.30;99.90;;;;;;5093160;28;20036;-60
2022/05/09 05:18:26;;;;;;;7.32;5.70;;;16.30;99.90;;;;;;5090886;28;20024;-60
2022/05/09 05:20:53;;;;;;;8.27;4.82;;;16.40;99.90;;;;;;5076568;28;20060;-61
2022/05/09 05:23:19;;;;;;;10.70;7.13;;;16.40;99.90;;;;;;5085628;28;20035;-60
2022/05/09 05:25:46;;;;;;;9.38;7.22;;;16.30;99.90;;;;;;5090771;28;20028;-60
2022/05/09 05:28:16;;;;;;;7.55;6.13;;;16.30;99.90;;;;;;5086164;28;20066;-61
2022/05/09 05:30:42;;;;;;;6.05;5.05;;;16.20;99.90;;;;;;5087598;28;20115;-60
2022/05/09 05:33:08;;;;;;;5.95;4.63;;;16.20;99.90;;;;;;5091135;28;20012;-60
2022/05/09 05:35:34;;;;;;;7.63;5.78;;;16.30;99.90;;;;;;5091826;28;20030;-60
2022/05/09 05:38:00;;;;;;;9.00;7.10;;;16.30;99.90;;;;;;5091117;28;20027;-60
2022/05/09 05:40:27;;;;;;;7.45;6.15;;;16.30;99.90;;;;;;5090805;28;20012;-60
2022/05/09 05:42:53;;;;;;;8.30;6.43;;;16.30;99.90;;;;;;5090623;28;20020;-60
2022/05/09 05:45:21;;;;;;;8.23;6.05;;;16.40;99.90;;;;;;5078840;28;20710;-61
2022/05/09 05:47:48;;;;;;;8.20;6.38;;;16.40;99.90;;;;;;5077492;28;20082;-60
2022/05/09 05:50:15;;;;;;;6.95;6.07;;;16.60;99.90;;;;;;5086085;28;20016;-60
2022/05/09 05:52:41;;;;;;;7.32;5.40;;;16.70;99.90;;;;;;5081840;28;20028;-60
2022/05/09 05:55:08;;;;;;;6.60;5.55;;;16.80;99.90;;;;;;5080238;28;20020;-61
2022/05/09 05:57:39;;;;;;;6.97;5.40;;;17.10;99.90;;;;;;5079796;28;20056;-60
2022/05/09 06:00:15;;;;;;;6.93;5.95;;;17.30;99.90;;;;;;5090657;28;20024;-60
2022/05/09 06:02:41;;;;;;;6.13;5.28;;;17.50;99.90;;;;;;5079978;28;20520;-61
2022/05/09 06:05:09;;;;;;;6.38;5.57;;;17.70;99.90;;;;;;5072978;28;20036;-61
2022/05/09 06:07:35;;;;;;;7.93;6.18;;;17.80;99.90;;;;;;5074585;28;20028;-60
2022/05/09 06:10:01;;;;;;;7.10;5.90;;;18.00;99.90;;;;;;5086708;28;20016;-61
2022/05/09 06:12:28;;;;;;;9.07;6.97;;;18.20;99.90;;;;;;5060273;28;20024;-60
2022/05/09 06:17:38;;;;;;;13.82;12.25;;;18.70;99.90;;;;;;5091741;28;20039;-60
2022/05/09 06:20:07;;;;;;;17.73;14.00;;;19.00;99.90;;;;;;5084465;28;20028;-60
2022/05/09 06:22:36;;;;;;;15.43;12.43;;;18.90;99.90;;;;;;5092728;28;20020;-61
2022/05/09 06:25:02;;;;;;;16.67;11.95;;;18.80;99.90;;;;;;5080934;28;20119;-59
2022/05/09 06:27:28;;;;;;;16.40;12.93;;;19.00;99.90;;;;;;5085862;28;20032;-61
2022/05/09 06:29:53;;;;;;;16.92;12.57;;;19.10;99.90;;;;;;5083064;28;20020;-61
2022/05/09 06:32:23;;;;;;;14.38;11.25;;;19.20;99.90;;;;;;5074094;28;20090;-61
2022/05/09 06:34:50;;;;;;;15.75;11.85;;;19.50;99.90;;;;;;5075004;28;20024;-62
2022/05/09 06:37:16;;;;;;;13.63;10.30;;;19.60;99.90;;;;;;5080827;28;20498;-60
2022/05/09 06:39:42;;;;;;;14.57;11.57;;;19.70;99.90;;;;;;5076140;28;20024;-61
2022/05/09 06:42:08;;;;;;;12.60;10.50;;;19.50;99.90;;;;;;5084711;28;20148;-60
2022/05/09 06:44:35;;;;;;;13.10;10.38;;;19.80;99.90;;;;;;5082019;28;20036;-60
2022/05/09 06:47:05;;;;;;;14.60;11.23;;;20.00;99.90;;;;;;5083575;28;20039;-59
2022/05/09 06:49:31;;;;;;;17.58;13.85;;;20.30;99.90;;;;;;5078411;28;20608;-60
2022/05/09 06:51:58;;;;;;;20.17;14.35;;;20.20;99.90;;;;;;5086263;28;20047;-59
2022/05/09 06:54:24;;;;;;;19.15;14.52;;;19.80;99.90;;;;;;5089667;28;20088;-59
2022/05/09 06:56:50;;;;;;;21.75;14.73;;;20.10;99.90;;;;;;5091462;28;20119;-59
2022/05/09 06:59:16;;;;;;;14.60;12.15;;;20.60;99.90;;;;;;5094513;28;20032;-60
2022/05/09 07:01:43;;;;;;;12.27;10.95;;;22.30;99.90;;;;;;5094569;28;20016;-60
2022/05/09 07:04:10;;;;;;;16.60;13.27;;;24.70;95.20;;;;;;5090504;28;20093;-59
2022/05/09 07:06:36;;;;;;;16.45;10.32;;;25.70;80.50;;;;;;5093259;28;20028;-59
2022/05/09 07:09:05;;;;;;;16.23;11.60;;;26.10;80.00;;;;;;5093699;28;20506;-59
2022/05/09 07:11:31;;;;;;;13.40;10.63;;;27.50;77.20;;;;;;5093411;28;20651;-59
2022/05/09 07:13:57;;;;;;;11.25;8.85;;;28.40;68.50;;;;;;5093092;28;20020;-59
2022/05/09 07:16:23;;;;;;;10.98;9.10;;;29.50;63.30;;;;;;5075923;28;20483;-60
2022/05/09 07:18:49;;;;;;;13.80;10.93;;;30.30;60.20;;;;;;5081684;28;20440;-59
2022/05/09 07:21:15;;;;;;;17.67;12.73;;;30.70;57.10;;;;;;5089635;28;20027;-59
2022/05/09 07:23:41;;;;;;;14.13;11.95;;;29.40;55.80;;;;;;5091569;28;20032;-63
2022/05/09 07:26:06;;;;;;;17.90;13.10;;;29.10;55.70;;;;;;5073183;28;20453;-59
2022/05/09 07:28:32;;;;;;;12.77;10.18;;;29.50;56.50;;;;;;5072888;28;20056;-59
2022/05/09 07:31:02;;;;;;;15.32;11.40;;;29.90;55.80;;;;;;5088275;28;20032;-59
2022/05/09 07:33:28;;;;;;;12.00;9.95;;;29.60;54.60;;;;;;5093012;28;20024;-60
2022/05/09 07:35:55;;;;;;;11.35;9.27;;;30.30;54.50;;;;;;5093428;28;20027;-59
2022/05/09 07:38:20;;;;;;;12.13;10.73;;;31.30;52.90;;;;;;5093518;28;20067;-59
2022/05/09 07:40:47;;;;;;;11.57;9.40;;;31.70;50.80;;;;;;5092678;28;20052;-60
2022/05/09 07:43:17;;;;;;;16.25;11.30;;;30.80;52.40;;;;;;5094278;28;20024;-59
2022/05/09 07:45:43;;;;;;;19.05;12.05;;;30.30;50.60;;;;;;5090325;28;20387;-61
2022/05/09 07:48:10;;;;;;;16.85;10.23;;;29.90;51.00;;;;;;5093695;28;20072;-60
2022/05/09 07:50:36;;;;;;;10.75;8.35;;;30.30;50.70;;;;;;5092544;28;20452;-60
2022/05/09 07:53:20;;;;;;;12.48;9.90;;;30.80;52.00;;;;;;5089602;28;20052;-61
2022/05/09 07:55:47;;;;;;;12.10;8.82;;;31.20;49.70;;;;;;5082370;28;20091;-60
2022/05/09 07:58:13;;;;;;;17.15;11.10;;;31.80;48.60;;;;;;5078134;28;20029;-63
2022/05/09 08:00:42;;;;;;;14.13;9.88;;;31.30;48.00;;;;;;5090134;28;20028;-62
2022/05/09 08:03:18;;;;;;;10.15;8.35;;;29.80;51.40;;;;;;5071406;28;20047;-63
2022/05/09 08:05:44;;;;;;;9.43;7.95;;;30.80;51.00;;;;;;5089556;28;20389;-63
2022/05/09 08:08:10;;;;;;;10.68;9.57;;;31.50;52.80;;;;;;5088830;28;20020;-66
2022/05/09 08:10:37;;;;;;;10.40;8.23;;;32.40;47.80;;;;;;5090514;28;20032;-64
2022/05/09 08:13:04;;;;;;;9.57;7.78;;;31.90;47.80;;;;;;5091040;28;20047;-62
2022/05/09 08:15:31;;;;;;;9.57;7.75;;;31.30;47.70;;;;;;5089720;28;20012;-63
2022/05/09 08:17:58;;;;;;;7.68;6.15;;;30.70;48.20;;;;;;5081121;28;20048;-66
2022/05/09 08:20:25;;;;;;;6.53;5.80;;;30.70;49.60;;;;;;5084571;28;20028;-62
2022/05/09 08:23:02;;;;;;;9.80;5.90;;;30.50;49.60;;;;;;5070480;28;20109;-63
2022/05/09 08:25:28;;;;;;;10.07;6.68;;;30.30;51.10;;;;;;5076852;28;20109;-63
2022/05/09 08:27:54;;;;;;;11.10;6.43;;;29.80;49.40;;;;;;5087760;28;20478;-63
2022/05/09 08:30:20;;;;;;;9.73;6.95;;;29.10;49.90;;;;;;5089846;28;20024;-62
2022/05/09 08:32:45;;;;;;;7.78;6.47;;;28.70;50.70;;;;;;5092000;28;20029;-61
2022/05/09 08:35:13;;;;;;;6.78;5.95;;;28.60;54.50;;;;;;5092164;28;20032;-67
2022/05/09 08:37:39;;;;;;;7.30;5.45;;;28.80;55.30;;;;;;5091957;28;20073;-63
2022/05/09 08:40:06;;;;;;;7.95;5.38;;;28.60;53.10;;;;;;5092647;28;20485;-63
2022/05/09 08:42:37;;;;;;;5.90;4.80;;;28.80;53.60;;;;;;5092330;28;20017;-63
2022/05/09 08:45:35;;;;;;;6.35;4.63;;;28.70;53.80;;;;;;5091138;28;20081;-63
2022/05/09 08:48:06;;;;;;;8.23;4.82;;;28.50;51.60;;;;;;5091306;28;20030;-63
2022/05/09 08:50:54;;;;;;;8.20;5.00;;;28.60;51.60;;;;;;5088595;28;20078;-64
2022/05/09 08:53:23;;;;;;;10.18;4.97;;;28.30;52.50;;;;;;5089348;28;20044;-63
2022/05/09 08:55:51;;;;;;;5.85;4.22;;;28.10;53.30;;;;;;5084236;28;20420;-64
2022/05/09 08:58:40;;;;;;;6.30;3.92;;;28.80;52.00;;;;;;5086707;28;20032;-62
2022/05/09 09:01:16;;;;;;;6.28;4.20;;;29.60;52.10;;;;;;5071009;28;20055;-62
2022/05/09 09:04:06;;;;;;;6.20;4.22;;;29.50;51.70;;;;;;5087864;28;20032;-61
2022/05/09 09:06:38;;;;;;;7.00;4.57;;;29.60;51.50;;;;;;5056496;28;20032;-60
2022/05/09 09:09:06;;;;;;;5.70;3.85;;;30.10;50.50;;;;;;5086702;28;20501;-61
2022/05/09 09:11:53;;;;;;;5.93;4.30;;;29.20;50.60;;;;;;5091969;28;20378;-61
2022/05/09 09:14:37;;;;;;;7.40;4.63;;;29.20;52.80;;;;;;5090005;28;20031;-61
2022/05/09 09:17:17;;;;;;;6.57;4.00;;;29.90;53.20;;;;;;5083198;28;20116;-61
2022/05/09 09:19:52;;;;;;;5.43;3.88;;;30.30;52.60;;;;;;5075957;28;20036;-62
2022/05/09 09:22:55;;;;;;;5.10;4.07;;;30.40;53.80;;;;;;5089850;28;20067;-65
2022/05/09 09:25:50;;;;;;;10.40;4.40;;;30.30;51.80;;;;;;5078913;28;20077;-61
2022/05/09 09:28:23;;;;;;;6.05;4.38;;;30.00;48.90;;;;;;5070581;28;20032;-61
2022/05/09 09:30:50;;;;;;;8.98;4.97;;;29.60;50.00;;;;;;5068367;28;20039;-64
2022/05/09 09:33:19;;;;;;;8.35;4.90;;;29.80;52.80;;;;;;5073659;28;20031;-61
2022/05/09 09:36:00;;;;;;;7.70;4.38;;;30.30;52.30;;;;;;5081823;28;20020;-63
2022/05/09 09:38:53;;;;;;;5.38;3.60;;;30.30;48.40;;;;;;5089205;28;20085;-62
2022/05/09 09:41:30;;;;;;;5.55;3.60;;;30.60;49.40;;;;;;5092005;28;20028;-59
2022/05/09 09:44:10;;;;;;;6.40;3.70;;;30.30;48.10;;;;;;5063440;28;20149;-63
2022/05/09 09:46:58;;;;;;;5.40;3.30;;;30.60;49.40;;;;;;5086728;28;20495;-62
2022/05/09 09:49:24;;;;;;;9.20;3.90;;;30.90;47.30;;;;;;5048911;28;20432;-60
2022/05/09 09:51:51;;;;;;;9.73;3.17;;;30.80;48.10;;;;;;5069791;28;20020;-60
2022/05/09 09:54:22;;;;;;;6.85;3.30;;;30.90;49.50;;;;;;5071295;28;20032;-62
2022/05/09 09:56:49;;;;;;;7.38;3.90;;;31.30;52.30;;;;;;5073501;28;20052;-59
2022/05/09 09:59:18;;;;;;;6.03;3.72;;;31.20;47.50;;;;;;5094036;28;20024;-59
2022/05/09 10:01:59;;;;;;;5.55;3.42;;;31.10;47.10;;;;;;5091958;28;20486;-61
2022/05/09 10:04:29;;;;;;;6.43;3.40;;;31.40;48.20;;;;;;5088273;28;20032;-60
2022/05/09 10:07:03;;;;;;;6.60;3.53;;;31.40;48.60;;;;;;5089731;28;20020;-64
2022/05/09 10:10:10;;;;;;;4.93;3.45;;;31.70;48.40;;;;;;5086025;28;20051;-62
2022/05/09 10:12:38;;;;;;;5.47;3.25;;;31.60;45.40;;;;;;5083835;28;20036;-62
2022/05/09 10:15:31;;;;;;;7.32;3.20;;;31.90;48.00;;;;;;5094375;28;20024;-61
2022/05/09 10:17:58;;;;;;;3.95;2.78;;;32.10;48.60;;;;;;5074617;28;20081;-65
2022/05/09 10:20:40;;;;;;;4.25;3.05;;;32.20;49.90;;;;;;5090469;28;20028;-63
2022/05/09 10:26:24;;;;;;;3.13;2.83;;;32.70;49.10;;;;;;5091050;28;20067;-62
2022/05/09 10:28:54;;;;;;;4.40;2.90;;;32.70;47.00;;;;;;5087229;28;20065;-67
2022/05/09 10:31:30;;;;;;;2.67;2.30;;;33.10;44.60;;;;;;5087137;28;20078;-62
2022/05/09 10:34:06;;;;;;;4.68;2.20;;;33.30;40.40;;;;;;5090415;28;20035;-66
2022/05/09 10:36:36;;;;;;;5.15;3.13;;;33.30;41.30;;;;;;5095415;28;20043;-64
2022/05/09 10:39:36;;;;;;;3.75;2.53;;;33.60;41.00;;;;;;5095032;28;20013;-64
2022/05/09 10:42:10;;;;;;;3.30;2.33;;;33.30;43.10;;;;;;5060231;28;20108;-61
2022/05/09 10:45:04;;;;;;;3.50;2.00;;;33.30;43.10;;;;;;5093580;28;20024;-67
2022/05/09 10:47:35;;;;;;;4.28;2.05;;;33.30;40.80;;;;;;5082542;28;20505;-65
2022/05/09 10:50:17;;;;;;;2.28;2.08;;;33.50;38.80;;;;;;5086658;28;20075;-63
2022/05/09 10:52:55;;;;;;;2.22;1.83;;;33.10;35.80;;;;;;5076910;28;20036;-64
2022/05/09 10:55:33;;;;;;;2.38;2.15;;;33.10;36.60;;;;;;5090045;28;20352;-63
2022/05/09 10:58:23;;;;;;;3.63;2.80;;;33.30;35.80;;;;;;5093409;28;20505;-61
2022/05/09 11:01:21;;;;;;;3.95;1.95;;;33.50;36.40;;;;;;5089308;28;20059;-60
2022/05/09 11:03:47;;;;;;;3.15;1.75;;;33.00;33.70;;;;;;5092694;28;20554;-61
2022/05/09 11:06:31;;;;;;;1.75;1.65;;;32.60;31.50;;;;;;5093141;28;20099;-62
2022/05/09 11:09:24;;;;;;;1.77;1.67;;;33.00;36.30;;;;;;5084390;28;20074;-63
2022/05/09 11:12:05;;;;;;;1.67;1.50;;;33.50;34.70;;;;;;5091448;28;20490;-63
2022/05/09 11:15:04;;;;;;;1.25;1.13;;;33.40;31.60;;;;;;5091661;28;20024;-61
2022/05/09 11:17:54;;;;;;;2.38;1.58;;;33.20;32.80;;;;;;5086137;28;20024;-61
2022/05/09 11:20:29;;;;;;;2.30;1.50;;;32.60;33.10;;;;;;5083093;28;20024;-65
2022/05/09 11:23:03;;;;;;;2.03;1.60;;;32.80;37.90;;;;;;5072494;28;20043;-61
2022/05/09 11:25:50;;;;;;;2.60;2.00;;;33.20;35.70;;;;;;5077405;28;20035;-61
2022/05/09 11:28:40;;;;;;;1.65;1.55;;;33.10;35.70;;;;;;5089489;28;20099;-60
2022/05/09 11:31:35;;;;;;;2.30;1.77;;;33.00;37.70;;;;;;5072229;28;20024;-60
2022/05/09 11:34:10;;;;;;;2.42;1.80;;;32.80;36.70;;;;;;5054102;28;20414;-61
2022/05/09 11:36:59;;;;;;;2.08;1.75;;;32.50;36.40;;;;;;5089214;28;20017;-60
2022/05/09 11:39:35;;;;;;;2.33;1.70;;;32.70;39.40;;;;;;5091040;28;20028;-60
2022/05/09 11:45:32;;;;;;;2.75;1.90;;;32.90;40.10;;;;;;5083220;28;20043;-60
2022/05/09 11:47:57;;;;;;;2.35;1.90;;;33.00;38.80;;;;;;5070850;28;20024;-60
2022/05/09 11:50:36;;;;;;;2.20;2.00;;;33.00;40.20;;;;;;5080532;28;20371;-60
2022/05/09 11:53:04;;;;;;;2.28;2.08;;;33.00;40.80;;;;;;5086132;28;20502;-60
2022/05/09 11:55:30;;;;;;;2.80;1.95;;;33.20;40.30;;;;;;5093505;28;20028;-60
2022/05/09 11:58:01;;;;;;;2.20;2.00;;;33.40;40.50;;;;;;5080166;28;20028;-60
2022/05/09 12:00:28;;;;;;;2.10;1.90;;;33.50;39.10;;;;;;5072336;28;20029;-60
2022/05/09 12:02:58;;;;;;;2.33;2.13;;;33.60;41.00;;;;;;5075050;28;20035;-60
2022/05/09 12:05:29;;;;;;;2.47;1.67;;;33.60;39.80;;;;;;5074876;28;20086;-60
2022/05/09 12:07:56;;;;;;;2.95;2.20;;;33.70;40.20;;;;;;5073616;28;20026;-59
2022/05/09 12:10:28;;;;;;;2.80;2.33;;;33.70;41.80;;;;;;5073229;28;20074;-60
2022/05/09 12:13:03;;;;;;;2.65;2.00;;;33.40;39.20;;;;;;5072672;28;20071;-59
2022/05/09 12:15:29;;;;;;;2.83;2.00;;;33.60;39.40;;;;;;5072358;28;20041;-60
2022/05/09 12:17:57;;;;;;;2.00;1.80;;;33.70;40.80;;;;;;5071765;28;20021;-59
2022/05/09 12:20:28;;;;;;;2.90;1.90;;;33.80;39.00;;;;;;5070661;28;20031;-59
2022/05/09 12:22:56;;;;;;;1.88;1.77;;;33.90;40.10;;;;;;5071476;28;20020;-59
2022/05/09 12:25:34;;;;;;;2.10;1.88;;;33.80;39.70;;;;;;5072213;28;20033;-59
2022/05/09 12:28:23;;;;;;;2.40;2.20;;;33.70;39.30;;;;;;5075566;28;20028;-60
2022/05/09 12:31:26;;;;;;;2.53;2.30;;;33.70;40.60;;;;;;5080034;28;20119;-60
2022/05/09 12:33:53;;;;;;;2.58;2.38;;;33.70;41.50;;;;;;5080414;28;20451;-59
2022/05/09 12:36:25;;;;;;;3.28;2.38;;;33.70;38.80;;;;;;5079897;28;20032;-60
2022/05/09 12:38:52;;;;;;;2.45;2.25;;;33.40;39.90;;;;;;5079214;28;20024;-59
2022/05/09 12:41:25;;;;;;;2.35;2.15;;;33.20;40.60;;;;;;5082867;28;20406;-60
2022/05/09 12:43:53;;;;;;;;;;;33.30;39.40;;;;;;5094566;28;20047;-60
2022/05/09 12:46:52;;;;;;;2.70;2.00;;;33.20;39.20;;;;;;5093539;28;19908;-59
2022/05/09 12:49:26;;;;;;;2.72;2.00;;;32.90;39.60;;;;;;5060923;28;20036;-60
2022/05/09 12:51:55;;;;;;;3.00;2.45;;;33.00;40.30;;;;;;5094478;28;20016;-59
2022/05/09 12:54:25;;;;;;;2.75;2.20;;;33.30;41.90;;;;;;5094051;28;20111;-60
2022/05/09 12:56:56;;;;;;;2.40;1.95;;;33.40;40.30;;;;;;5093923;28;20119;-59
2022/05/09 12:59:22;;;;;;;3.30;2.17;;;33.50;41.00;;;;;;5094374;28;20032;-59
2022/05/09 13:01:57;;;;;;;2.30;2.10;;;33.60;40.10;;;;;;5092298;28;20513;-60
2022/05/09 13:04:28;;;;;;;3.60;2.40;;;33.60;39.30;;;;;;5091909;28;20119;-60
2022/05/09 13:06:59;;;;;;;2.15;1.95;;;33.50;37.40;;;;;;5092098;28;20020;-59
2022/05/09 13:09:31;;;;;;;2.25;2.05;;;32.40;38.50;;;;;;5092158;28;20077;-60
2022/05/09 13:12:02;;;;;;;1.75;1.65;;;32.50;39.70;;;;;;5092478;28;20020;-59
2022/05/09 13:14:44;;;;;;;2.20;2.00;;;32.40;37.50;;;;;;5093189;28;20043;-59
2022/05/09 13:17:28;;;;;;;2.60;2.17;;;32.30;38.20;;;;;;5093590;28;20062;-60